sensor_id;sensor_type;location;lat;lon;timestamp;pressure;altitude;pressure_sealevel;temperature;humidity
70200;BME280;57587;55.688;37.600;2023-03-11T00:00:40;98993.56;;;-2.65;45.50
70200;BME280;57587;55.688;37.600;2023-03-11T00:03:08;98991.78;;;-2.64;45.74
70200;BME280;57587;55.688;37.600;2023-03-11T00:05:37;98989.41;;;-2.56;45.36
70200;BME280;57587;55.688;37.600;2023-03-11T00:08:07;98991.06;;;-2.66;45.13
70200;BME280;57587;55.688;37.600;2023-03-11T00:10:37;98991.63;;;-2.74;45.30
70200;BME280;57587;55.688;37.600;2023-03-11T00:13:06;98983.25;;;-2.79;45.28
70200;BME280;57587;55.688;37.600;2023-03-11T00:15:35;98983.16;;;-2.78;45.66
70200;BME280;57587;55.688;37.600;2023-03-11T00:18:02;98984.13;;;-2.79;45.66
70200;BME280;57587;55.688;37.600;2023-03-11T00:20:33;98987.06;;;-2.83;45.57
70200;BME280;57587;55.688;37.600;2023-03-11T00:23:01;98976.03;;;-2.75;45.65
70200;BME280;57587;55.688;37.600;2023-03-11T00:25:30;98978.31;;;-2.71;45.44
70200;BME280;57587;55.688;37.600;2023-03-11T00:27:58;98979.34;;;-2.73;45.27
70200;BME280;57587;55.688;37.600;2023-03-11T00:30:26;98977.41;;;-2.83;45.55
70200;BME280;57587;55.688;37.600;2023-03-11T00:32:56;98975.53;;;-2.81;45.96
70200;BME280;57587;55.688;37.600;2023-03-11T00:35:25;98983.34;;;-2.92;45.10
70200;BME280;57587;55.688;37.600;2023-03-11T00:37:56;98970.25;;;-2.92;45.41
70200;BME280;57587;55.688;37.600;2023-03-11T00:40:25;98983.03;;;-3.11;45.37
70200;BME280;57587;55.688;37.600;2023-03-11T00:42:53;98979.97;;;-3.05;45.86
70200;BME280;57587;55.688;37.600;2023-03-11T00:45:20;98967.59;;;-3.03;46.04
70200;BME280;57587;55.688;37.600;2023-03-11T00:47:47;98970.22;;;-3.03;45.72
70200;BME280;57587;55.688;37.600;2023-03-11T00:50:17;98982.78;;;-3.08;45.93
70200;BME280;57587;55.688;37.600;2023-03-11T00:52:45;98978.31;;;-3.06;46.08
70200;BME280;57587;55.688;37.600;2023-03-11T00:55:16;98969.78;;;-2.97;46.03
70200;BME280;57587;55.688;37.600;2023-03-11T00:57:45;98980.13;;;-2.95;46.08
70200;BME280;57587;55.688;37.600;2023-03-11T01:00:17;98979.78;;;-2.91;45.86
70200;BME280;57587;55.688;37.600;2023-03-11T01:02:44;98981.53;;;-3.03;46.15
70200;BME280;57587;55.688;37.600;2023-03-11T01:05:12;98982.34;;;-3.02;46.10
70200;BME280;57587;55.688;37.600;2023-03-11T01:07:39;98984.00;;;-3.01;46.43
70200;BME280;57587;55.688;37.600;2023-03-11T01:10:08;98984.00;;;-3.01;45.98
70200;BME280;57587;55.688;37.600;2023-03-11T01:12:36;98988.53;;;-3.03;46.55
70200;BME280;57587;55.688;37.600;2023-03-11T01:15:04;98972.72;;;-3.02;46.49
70200;BME280;57587;55.688;37.600;2023-03-11T01:17:31;98981.13;;;-3.09;46.25
70200;BME280;57587;55.688;37.600;2023-03-11T01:19:58;98979.44;;;-3.10;47.08
70200;BME280;57587;55.688;37.600;2023-03-11T01:22:25;98979.00;;;-3.04;46.53
70200;BME280;57587;55.688;37.600;2023-03-11T01:24:52;98979.13;;;-3.06;46.76
70200;BME280;57587;55.688;37.600;2023-03-11T01:27:19;98979.44;;;-3.10;47.22
70200;BME280;57587;55.688;37.600;2023-03-11T01:29:46;98975.09;;;-3.22;46.84
70200;BME280;57587;55.688;37.600;2023-03-11T01:32:13;98980.38;;;-3.35;47.05
70200;BME280;57587;55.688;37.600;2023-03-11T01:34:40;98972.06;;;-3.53;48.01
70200;BME280;57587;55.688;37.600;2023-03-11T01:37:07;98967.88;;;-3.43;48.28
70200;BME280;57587;55.688;37.600;2023-03-11T01:39:34;98980.06;;;-3.31;47.88
70200;BME280;57587;55.688;37.600;2023-03-11T01:42:01;98976.22;;;-3.38;47.79
70200;BME280;57587;55.688;37.600;2023-03-11T01:44:29;98986.91;;;-3.41;48.08
70200;BME280;57587;55.688;37.600;2023-03-11T01:49:31;98976.72;;;-3.69;48.98
70200;BME280;57587;55.688;37.600;2023-03-11T01:52:02;98972.47;;;-3.71;49.00
70200;BME280;57587;55.688;37.600;2023-03-11T01:54:40;98975.34;;;-3.62;49.35
70200;BME280;57587;55.688;37.600;2023-03-11T01:57:11;98974.19;;;-3.58;48.84
70200;BME280;57587;55.688;37.600;2023-03-11T01:59:43;98985.75;;;-3.74;49.65
70200;BME280;57587;55.688;37.600;2023-03-11T02:04:53;98980.94;;;-3.80;50.21
70200;BME280;57587;55.688;37.600;2023-03-11T02:07:23;98969.34;;;-3.88;50.38
70200;BME280;57587;55.688;37.600;2023-03-11T02:09:50;98967.78;;;-3.91;49.86
70200;BME280;57587;55.688;37.600;2023-03-11T02:12:18;98961.41;;;-3.87;49.96
70200;BME280;57587;55.688;37.600;2023-03-11T02:14:48;98973.34;;;-3.96;50.44
70200;BME280;57587;55.688;37.600;2023-03-11T02:17:17;98984.09;;;-4.00;51.25
70200;BME280;57587;55.688;37.600;2023-03-11T02:22:15;98985.78;;;-3.99;51.18
70200;BME280;57587;55.688;37.600;2023-03-11T02:24:47;98971.03;;;-4.00;51.31
70200;BME280;57587;55.688;37.600;2023-03-11T02:27:18;98976.81;;;-4.08;51.75
70200;BME280;57587;55.688;37.600;2023-03-11T02:29:49;98969.59;;;-4.04;51.58
70200;BME280;57587;55.688;37.600;2023-03-11T02:32:18;98974.47;;;-4.00;51.66
70200;BME280;57587;55.688;37.600;2023-03-11T02:34:46;98970.59;;;-3.94;51.66
70200;BME280;57587;55.688;37.600;2023-03-11T02:37:15;98966.97;;;-4.04;51.78
70200;BME280;57587;55.688;37.600;2023-03-11T02:39:51;98964.88;;;-4.12;52.22
70200;BME280;57587;55.688;37.600;2023-03-11T02:42:25;98962.59;;;-4.17;52.99
70200;BME280;57587;55.688;37.600;2023-03-11T02:45:33;98972.91;;;-4.15;52.83
70200;BME280;57587;55.688;37.600;2023-03-11T02:47:54;98981.72;;;-4.29;53.70
70200;BME280;57587;55.688;37.600;2023-03-11T02:50:23;98975.34;;;-4.25;54.31
70200;BME280;57587;55.688;37.600;2023-03-11T02:52:51;98970.94;;;-4.37;54.23
70200;BME280;57587;55.688;37.600;2023-03-11T02:55:21;98976.16;;;-4.37;54.96
70200;BME280;57587;55.688;37.600;2023-03-11T02:57:48;98966.78;;;-4.39;55.41
70200;BME280;57587;55.688;37.600;2023-03-11T03:00:16;98973.66;;;-4.13;54.54
70200;BME280;57587;55.688;37.600;2023-03-11T03:02:55;98978.22;;;-3.91;54.62
70200;BME280;57587;55.688;37.600;2023-03-11T03:05:24;98977.44;;;-4.30;55.90
70200;BME280;57587;55.688;37.600;2023-03-11T03:07:51;98975.53;;;-4.28;56.66
70200;BME280;57587;55.688;37.600;2023-03-11T03:10:19;98983.28;;;-4.39;57.13
70200;BME280;57587;55.688;37.600;2023-03-11T03:12:47;98975.53;;;-4.53;58.07
70200;BME280;57587;55.688;37.600;2023-03-11T03:15:14;98981.78;;;-4.56;58.67
70200;BME280;57587;55.688;37.600;2023-03-11T03:17:43;98980.34;;;-4.47;59.05
70200;BME280;57587;55.688;37.600;2023-03-11T03:20:12;98978.91;;;-4.51;58.66
70200;BME280;57587;55.688;37.600;2023-03-11T03:22:44;98982.84;;;-4.58;59.63
70200;BME280;57587;55.688;37.600;2023-03-11T03:25:15;98975.94;;;-4.59;60.08
70200;BME280;57587;55.688;37.600;2023-03-11T03:27:42;98980.63;;;-4.65;60.51
70200;BME280;57587;55.688;37.600;2023-03-11T03:30:10;98984.63;;;-4.59;60.70
70200;BME280;57587;55.688;37.600;2023-03-11T03:32:38;98980.00;;;-4.68;61.09
70200;BME280;57587;55.688;37.600;2023-03-11T03:35:09;98978.00;;;-4.77;61.66
70200;BME280;57587;55.688;37.600;2023-03-11T03:38:03;98983.44;;;-4.68;61.63
70200;BME280;57587;55.688;37.600;2023-03-11T03:40:31;98979.28;;;-4.70;62.98
70200;BME280;57587;55.688;37.600;2023-03-11T03:43:02;98987.22;;;-4.72;62.80
70200;BME280;57587;55.688;37.600;2023-03-11T03:45:30;98981.16;;;-4.72;63.14
70200;BME280;57587;55.688;37.600;2023-03-11T03:47:57;98974.91;;;-4.70;63.61
70200;BME280;57587;55.688;37.600;2023-03-11T03:50:27;98979.38;;;-4.72;63.81
70200;BME280;57587;55.688;37.600;2023-03-11T03:52:55;98971.53;;;-4.84;63.90
70200;BME280;57587;55.688;37.600;2023-03-11T03:55:23;98972.97;;;-4.93;64.09
70200;BME280;57587;55.688;37.600;2023-03-11T03:57:51;98964.53;;;-4.84;64.26
70200;BME280;57587;55.688;37.600;2023-03-11T04:00:21;98965.47;;;-4.85;64.21
70200;BME280;57587;55.688;37.600;2023-03-11T04:02:55;98964.94;;;-4.90;64.36
70200;BME280;57587;55.688;37.600;2023-03-11T04:05:30;98977.50;;;-4.82;64.45
70200;BME280;57587;55.688;37.600;2023-03-11T04:07:57;98973.56;;;-5.02;64.84
70200;BME280;57587;55.688;37.600;2023-03-11T04:10:26;98969.34;;;-5.18;65.51
70200;BME280;57587;55.688;37.600;2023-03-11T04:12:53;98964.81;;;-5.01;65.49
70200;BME280;57587;55.688;37.600;2023-03-11T04:15:20;98957.59;;;-5.11;64.99
70200;BME280;57587;55.688;37.600;2023-03-11T04:17:47;98956.44;;;-5.06;64.93
70200;BME280;57587;55.688;37.600;2023-03-11T04:20:15;98948.56;;;-4.92;65.62
70200;BME280;57587;55.688;37.600;2023-03-11T04:22:45;98944.81;;;-4.88;64.71
70200;BME280;57587;55.688;37.600;2023-03-11T04:25:12;98944.41;;;-4.82;64.54
70200;BME280;57587;55.688;37.600;2023-03-11T04:27:40;98947.09;;;-4.83;65.09
70200;BME280;57587;55.688;37.600;2023-03-11T04:30:13;98940.94;;;-4.95;65.59
70200;BME280;57587;55.688;37.600;2023-03-11T04:32:42;98934.03;;;-4.96;65.19
70200;BME280;57587;55.688;37.600;2023-03-11T04:35:10;98928.94;;;-4.85;65.59
70200;BME280;57587;55.688;37.600;2023-03-11T04:37:37;98932.91;;;-4.92;64.67
70200;BME280;57587;55.688;37.600;2023-03-11T04:40:05;98916.31;;;-4.91;65.26
70200;BME280;57587;55.688;37.600;2023-03-11T04:42:33;98927.16;;;-4.97;64.60
70200;BME280;57587;55.688;37.600;2023-03-11T04:45:00;98918.81;;;-4.90;64.75
70200;BME280;57587;55.688;37.600;2023-03-11T04:47:29;98926.81;;;-5.05;65.75
70200;BME280;57587;55.688;37.600;2023-03-11T04:49:57;98929.13;;;-5.01;64.97
70200;BME280;57587;55.688;37.600;2023-03-11T04:52:25;98917.47;;;-4.95;64.56
70200;BME280;57587;55.688;37.600;2023-03-11T04:54:52;98909.63;;;-4.95;64.83
70200;BME280;57587;55.688;37.600;2023-03-11T04:57:19;98922.59;;;-5.21;64.89
70200;BME280;57587;55.688;37.600;2023-03-11T04:59:47;98923.91;;;-5.14;64.86
70200;BME280;57587;55.688;37.600;2023-03-11T05:02:15;98915.34;;;-5.03;64.78
70200;BME280;57587;55.688;37.600;2023-03-11T05:04:50;98913.06;;;-5.07;64.38
70200;BME280;57587;55.688;37.600;2023-03-11T05:07:17;98924.53;;;-5.10;64.80
70200;BME280;57587;55.688;37.600;2023-03-11T05:09:46;98915.72;;;-5.22;65.13
70200;BME280;57587;55.688;37.600;2023-03-11T05:12:13;98915.50;;;-5.31;65.58
70200;BME280;57587;55.688;37.600;2023-03-11T05:14:45;98920.72;;;-5.19;65.65
70200;BME280;57587;55.688;37.600;2023-03-11T05:17:13;98909.50;;;-5.06;65.21
70200;BME280;57587;55.688;37.600;2023-03-11T05:19:41;98911.16;;;-5.05;65.68
70200;BME280;57587;55.688;37.600;2023-03-11T05:22:15;98913.16;;;-4.96;65.28
70200;BME280;57587;55.688;37.600;2023-03-11T05:24:43;98895.72;;;-4.96;65.60
70200;BME280;57587;55.688;37.600;2023-03-11T05:27:10;98907.44;;;-4.89;65.33
70200;BME280;57587;55.688;37.600;2023-03-11T05:29:38;98902.97;;;-4.74;64.72
70200;BME280;57587;55.688;37.600;2023-03-11T05:32:08;98902.66;;;-4.82;65.00
70200;BME280;57587;55.688;37.600;2023-03-11T05:34:36;98908.06;;;-4.85;64.26
70200;BME280;57587;55.688;37.600;2023-03-11T05:37:03;98913.50;;;-4.88;64.78
70200;BME280;57587;55.688;37.600;2023-03-11T05:39:31;98901.19;;;-4.73;64.64
70200;BME280;57587;55.688;37.600;2023-03-11T05:41:58;98896.19;;;-4.76;64.55
70200;BME280;57587;55.688;37.600;2023-03-11T05:44:26;98901.19;;;-4.73;64.12
70200;BME280;57587;55.688;37.600;2023-03-11T05:46:54;98916.66;;;-4.83;64.41
70200;BME280;57587;55.688;37.600;2023-03-11T05:49:22;98904.91;;;-4.90;64.51
70200;BME280;57587;55.688;37.600;2023-03-11T05:51:51;98893.88;;;-4.81;64.53
70200;BME280;57587;55.688;37.600;2023-03-11T05:54:25;98901.06;;;-4.72;64.55
70200;BME280;57587;55.688;37.600;2023-03-11T05:56:53;98896.81;;;-4.73;64.94
70200;BME280;57587;55.688;37.600;2023-03-11T05:59:22;98903.06;;;-4.75;64.67
70200;BME280;57587;55.688;37.600;2023-03-11T06:01:55;98899.50;;;-4.74;64.91
70200;BME280;57587;55.688;37.600;2023-03-11T06:04:23;98896.19;;;-4.64;64.67
70200;BME280;57587;55.688;37.600;2023-03-11T06:06:51;98893.38;;;-4.73;64.34
70200;BME280;57587;55.688;37.600;2023-03-11T06:09:21;98903.59;;;-4.83;65.03
70200;BME280;57587;55.688;37.600;2023-03-11T06:11:49;98897.84;;;-4.88;65.05
70200;BME280;57587;55.688;37.600;2023-03-11T06:14:18;98900.22;;;-5.11;64.94
70200;BME280;57587;55.688;37.600;2023-03-11T06:16:48;98903.06;;;-4.88;65.15
70200;BME280;57587;55.688;37.600;2023-03-11T06:19:18;98891.38;;;-4.70;64.80
70200;BME280;57587;55.688;37.600;2023-03-11T06:21:49;98895.66;;;-4.69;64.79
70200;BME280;57587;55.688;37.600;2023-03-11T06:24:17;98904.31;;;-4.81;64.66
70200;BME280;57587;55.688;37.600;2023-03-11T06:26:44;98891.59;;;-4.73;64.31
70200;BME280;57587;55.688;37.600;2023-03-11T06:29:14;98895.66;;;-4.56;64.21
70200;BME280;57587;55.688;37.600;2023-03-11T06:31:43;98890.34;;;-4.54;63.71
70200;BME280;57587;55.688;37.600;2023-03-11T06:34:11;98884.69;;;-4.48;63.81
70200;BME280;57587;55.688;37.600;2023-03-11T06:36:39;98884.69;;;-4.48;63.88
70200;BME280;57587;55.688;37.600;2023-03-11T06:39:06;98901.81;;;-4.44;62.91
70200;BME280;57587;55.688;37.600;2023-03-11T06:41:35;98884.06;;;-4.77;64.66
70200;BME280;57587;55.688;37.600;2023-03-11T06:44:04;98889.88;;;-4.87;64.81
70200;BME280;57587;55.688;37.600;2023-03-11T06:46:32;98878.81;;;-4.90;65.15
70200;BME280;57587;55.688;37.600;2023-03-11T06:48:59;98887.28;;;-4.99;65.63
70200;BME280;57587;55.688;37.600;2023-03-11T06:51:28;98886.56;;;-4.76;65.63
70200;BME280;57587;55.688;37.600;2023-03-11T06:53:55;98888.16;;;-4.73;65.57
70200;BME280;57587;55.688;37.600;2023-03-11T06:56:24;98882.19;;;-4.63;66.10
70200;BME280;57587;55.688;37.600;2023-03-11T06:58:56;98876.13;;;-4.76;65.23
70200;BME280;57587;55.688;37.600;2023-03-11T07:01:26;98885.63;;;-4.88;65.88
70200;BME280;57587;55.688;37.600;2023-03-11T07:03:56;98885.31;;;-4.83;66.09
70200;BME280;57587;55.688;37.600;2023-03-11T07:06:25;98864.66;;;-4.60;66.17
70200;BME280;57587;55.688;37.600;2023-03-11T07:09:00;98867.22;;;-4.35;65.15
70200;BME280;57587;55.688;37.600;2023-03-11T07:11:28;98862.09;;;-4.24;65.44
70200;BME280;57587;55.688;37.600;2023-03-11T07:14:03;98858.09;;;-4.17;64.75
70200;BME280;57587;55.688;37.600;2023-03-11T07:16:34;98877.13;;;-4.40;64.36
70200;BME280;57587;55.688;37.600;2023-03-11T07:19:08;98859.78;;;-4.28;64.35
70200;BME280;57587;55.688;37.600;2023-03-11T07:21:35;98856.31;;;-4.16;64.23
70200;BME280;57587;55.688;37.600;2023-03-11T07:24:02;98856.78;;;-3.98;63.82
70200;BME280;57587;55.688;37.600;2023-03-11T07:26:31;98861.78;;;-3.95;63.58
70200;BME280;57587;55.688;37.600;2023-03-11T07:28:59;98845.38;;;-3.97;64.39
70200;BME280;57587;55.688;37.600;2023-03-11T07:31:29;98850.88;;;-4.13;63.51
70200;BME280;57587;55.688;37.600;2023-03-11T07:33:59;98849.94;;;-3.88;64.40
70200;BME280;57587;55.688;37.600;2023-03-11T07:36:27;98859.69;;;-3.90;62.66
70200;BME280;57587;55.688;37.600;2023-03-11T07:39:00;98837.66;;;-3.99;63.40
70200;BME280;57587;55.688;37.600;2023-03-11T07:41:32;98827.25;;;-3.87;62.98
70200;BME280;57587;55.688;37.600;2023-03-11T07:44:00;98818.13;;;-4.06;63.12
70200;BME280;57587;55.688;37.600;2023-03-11T07:46:28;98802.28;;;-4.15;63.35
70200;BME280;57587;55.688;37.600;2023-03-11T07:48:55;98797.97;;;-4.04;64.09
70200;BME280;57587;55.688;37.600;2023-03-11T07:51:28;98802.97;;;-4.01;64.03
70200;BME280;57587;55.688;37.600;2023-03-11T07:53:57;98800.69;;;-4.05;64.98
70200;BME280;57587;55.688;37.600;2023-03-11T07:56:27;98812.94;;;-4.19;64.28
70200;BME280;57587;55.688;37.600;2023-03-11T07:58:56;98790.25;;;-4.18;65.62
70200;BME280;57587;55.688;37.600;2023-03-11T08:01:25;98784.44;;;-3.98;65.99
70200;BME280;57587;55.688;37.600;2023-03-11T08:03:53;98775.50;;;-4.06;64.84
70200;BME280;57587;55.688;37.600;2023-03-11T08:06:27;98779.00;;;-4.19;66.03
70200;BME280;57587;55.688;37.600;2023-03-11T08:08:55;98770.22;;;-4.18;66.57
70200;BME280;57587;55.688;37.600;2023-03-11T08:11:22;98787.47;;;-4.28;66.16
70200;BME280;57587;55.688;37.600;2023-03-11T08:13:50;98782.94;;;-4.50;66.75
70200;BME280;57587;55.688;37.600;2023-03-11T08:16:20;98773.72;;;-4.30;67.28
70200;BME280;57587;55.688;37.600;2023-03-11T08:18:49;98759.41;;;-4.37;67.45
70200;BME280;57587;55.688;37.600;2023-03-11T08:21:22;98761.16;;;-4.25;67.82
70200;BME280;57587;55.688;37.600;2023-03-11T08:23:50;98760.09;;;-4.22;67.56
70200;BME280;57587;55.688;37.600;2023-03-11T08:26:19;98763.66;;;-3.99;67.04
70200;BME280;57587;55.688;37.600;2023-03-11T08:28:48;98751.47;;;-3.87;65.91
70200;BME280;57587;55.688;37.600;2023-03-11T08:31:17;98754.88;;;-3.98;65.74
70200;BME280;57587;55.688;37.600;2023-03-11T08:33:47;98746.34;;;-4.24;66.13
70200;BME280;57587;55.688;37.600;2023-03-11T08:36:16;98732.63;;;-4.04;66.15
70200;BME280;57587;55.688;37.600;2023-03-11T08:38:44;98762.78;;;-4.11;65.30
70200;BME280;57587;55.688;37.600;2023-03-11T08:41:11;98742.72;;;-4.10;65.68
70200;BME280;57587;55.688;37.600;2023-03-11T08:43:39;98748.75;;;-3.86;64.58
70200;BME280;57587;55.688;37.600;2023-03-11T08:46:06;98758.03;;;-3.82;65.21
70200;BME280;57587;55.688;37.600;2023-03-11T08:48:35;98741.88;;;-3.76;65.13
70200;BME280;57587;55.688;37.600;2023-03-11T08:51:11;98756.44;;;-3.72;65.35
70200;BME280;57587;55.688;37.600;2023-03-11T08:53:38;98751.34;;;-3.51;64.87
70200;BME280;57587;55.688;37.600;2023-03-11T08:56:06;98752.22;;;-3.39;64.11
70200;BME280;57587;55.688;37.600;2023-03-11T08:58:33;98744.97;;;-3.46;64.10
70200;BME280;57587;55.688;37.600;2023-03-11T09:01:00;98739.69;;;-3.58;64.47
70200;BME280;57587;55.688;37.600;2023-03-11T09:03:33;98729.09;;;-3.67;64.76
70200;BME280;57587;55.688;37.600;2023-03-11T09:06:06;98723.28;;;-3.95;66.33
70200;BME280;57587;55.688;37.600;2023-03-11T09:08:34;98736.44;;;-4.08;67.92
70200;BME280;57587;55.688;37.600;2023-03-11T09:11:01;98734.03;;;-3.87;69.36
70200;BME280;57587;55.688;37.600;2023-03-11T09:13:28;98717.53;;;-3.76;68.56
70200;BME280;57587;55.688;37.600;2023-03-11T09:15:56;98709.81;;;-3.78;68.33
70200;BME280;57587;55.688;37.600;2023-03-11T09:18:23;98721.63;;;-3.96;68.51
70200;BME280;57587;55.688;37.600;2023-03-11T09:20:50;98703.34;;;-3.96;69.01
70200;BME280;57587;55.688;37.600;2023-03-11T09:23:17;98688.19;;;-3.80;68.24
70200;BME280;57587;55.688;37.600;2023-03-11T09:25:44;98709.09;;;-3.80;66.80
70200;BME280;57587;55.688;37.600;2023-03-11T09:28:11;98713.50;;;-3.80;67.12
70200;BME280;57587;55.688;37.600;2023-03-11T09:30:38;98699.19;;;-3.87;67.53
70200;BME280;57587;55.688;37.600;2023-03-11T09:33:06;98697.94;;;-3.71;67.74
70200;BME280;57587;55.688;37.600;2023-03-11T09:35:33;98725.47;;;-3.89;66.43
70200;BME280;57587;55.688;37.600;2023-03-11T09:38:00;98697.03;;;-3.94;66.46
70200;BME280;57587;55.688;37.600;2023-03-11T09:40:38;98689.06;;;-3.68;67.27
70200;BME280;57587;55.688;37.600;2023-03-11T09:43:19;98687.97;;;-3.65;66.16
70200;BME280;57587;55.688;37.600;2023-03-11T09:48:54;98704.28;;;-3.97;66.80
70200;BME280;57587;55.688;37.600;2023-03-11T09:51:32;98691.88;;;-4.06;66.59
70200;BME280;57587;55.688;37.600;2023-03-11T09:54:04;98686.88;;;-4.09;66.99
70200;BME280;57587;55.688;37.600;2023-03-11T09:56:36;98688.16;;;-4.15;67.33
70200;BME280;57587;55.688;37.600;2023-03-11T09:59:29;98674.31;;;-4.04;67.05
70200;BME280;57587;55.688;37.600;2023-03-11T10:01:58;98665.34;;;-3.89;67.06
70200;BME280;57587;55.688;37.600;2023-03-11T10:04:30;98653.75;;;-3.62;66.69
70200;BME280;57587;55.688;37.600;2023-03-11T10:07:01;98651.50;;;-3.44;66.16
70200;BME280;57587;55.688;37.600;2023-03-11T10:09:54;98640.81;;;-3.41;65.16
70200;BME280;57587;55.688;37.600;2023-03-11T10:12:41;98641.06;;;-3.22;64.35
70200;BME280;57587;55.688;37.600;2023-03-11T10:15:40;98642.00;;;-3.12;63.97
70200;BME280;57587;55.688;37.600;2023-03-11T10:18:39;98629.03;;;-3.47;63.79
70200;BME280;57587;55.688;37.600;2023-03-11T10:24:11;98625.69;;;-3.60;65.47
70200;BME280;57587;55.688;37.600;2023-03-11T10:26:41;98619.16;;;-3.77;65.17
70200;BME280;57587;55.688;37.600;2023-03-11T10:29:16;98610.72;;;-3.69;65.73
70200;BME280;57587;55.688;37.600;2023-03-11T10:31:51;98602.16;;;-3.83;65.87
70200;BME280;57587;55.688;37.600;2023-03-11T10:34:26;98603.38;;;-3.64;65.73
70200;BME280;57587;55.688;37.600;2023-03-11T10:37:02;98590.16;;;-3.85;65.68
70200;BME280;57587;55.688;37.600;2023-03-11T10:39:33;98581.59;;;-3.54;65.21
70200;BME280;57587;55.688;37.600;2023-03-11T10:42:12;98581.84;;;-3.45;64.45
70200;BME280;57587;55.688;37.600;2023-03-11T10:44:41;98580.53;;;-3.74;65.23
70200;BME280;57587;55.688;37.600;2023-03-11T10:47:28;98586.22;;;-3.91;65.36
70200;BME280;57587;55.688;37.600;2023-03-11T10:49:55;98566.06;;;-3.78;65.04
70200;BME280;57587;55.688;37.600;2023-03-11T10:52:22;98558.31;;;-3.79;64.86
70200;BME280;57587;55.688;37.600;2023-03-11T10:54:59;98565.81;;;-3.75;65.26
70200;BME280;57587;55.688;37.600;2023-03-11T10:57:32;98556.66;;;-3.58;64.94
70200;BME280;57587;55.688;37.600;2023-03-11T11:00:03;98564.97;;;-3.75;65.20
70200;BME280;57587;55.688;37.600;2023-03-11T11:02:50;98569.25;;;-3.85;65.51
70200;BME280;57587;55.688;37.600;2023-03-11T11:07:49;98532.50;;;-3.50;65.43
70200;BME280;57587;55.688;37.600;2023-03-11T11:10:26;98523.88;;;-3.62;64.92
70200;BME280;57587;55.688;37.600;2023-03-11T11:13:02;98529.44;;;-3.55;65.63
70200;BME280;57587;55.688;37.600;2023-03-11T11:15:55;98530.63;;;-3.59;65.44
70200;BME280;57587;55.688;37.600;2023-03-11T11:20:58;98512.56;;;-3.40;65.23
70200;BME280;57587;55.688;37.600;2023-03-11T11:23:41;98518.84;;;-3.31;65.03
70200;BME280;57587;55.688;37.600;2023-03-11T11:28:44;98507.31;;;-3.40;65.46
70200;BME280;57587;55.688;37.600;2023-03-11T11:31:22;98498.34;;;-3.15;64.82
70200;BME280;57587;55.688;37.600;2023-03-11T11:33:54;98502.25;;;-3.09;64.61
70200;BME280;57587;55.688;37.600;2023-03-11T11:36:28;98477.91;;;-3.21;64.73
70200;BME280;57587;55.688;37.600;2023-03-11T11:38:57;98501.13;;;-3.39;64.83
70200;BME280;57587;55.688;37.600;2023-03-11T11:41:26;98496.03;;;-3.40;65.53
70200;BME280;57587;55.688;37.600;2023-03-11T11:43:58;98494.69;;;-3.35;65.71
70200;BME280;57587;55.688;37.600;2023-03-11T11:46:35;98485.09;;;-3.34;65.67
70200;BME280;57587;55.688;37.600;2023-03-11T11:49:20;98511.47;;;-3.37;65.70
70200;BME280;57587;55.688;37.600;2023-03-11T11:52:16;98480.88;;;-3.26;65.63
70200;BME280;57587;55.688;37.600;2023-03-11T11:57:24;98477.97;;;-3.43;66.60
70200;BME280;57587;55.688;37.600;2023-03-11T11:59:52;98487.38;;;-3.52;66.52
70200;BME280;57587;55.688;37.600;2023-03-11T12:05:30;98466.63;;;-3.21;65.56
70200;BME280;57587;55.688;37.600;2023-03-11T12:10:32;98454.03;;;-3.28;65.83
70200;BME280;57587;55.688;37.600;2023-03-11T12:18:30;98453.78;;;-3.25;65.80
70200;BME280;57587;55.688;37.600;2023-03-11T12:23:57;98455.16;;;-3.09;65.53
70200;BME280;57587;55.688;37.600;2023-03-11T12:26:31;98457.69;;;-2.98;65.29
70200;BME280;57587;55.688;37.600;2023-03-11T12:29:07;98452.72;;;-3.01;65.64
70200;BME280;57587;55.688;37.600;2023-03-11T12:31:42;98451.09;;;-3.13;65.24
70200;BME280;57587;55.688;37.600;2023-03-11T12:34:13;98452.72;;;-3.01;65.73
70200;BME280;57587;55.688;37.600;2023-03-11T12:36:44;98447.56;;;-3.12;65.88
70200;BME280;57587;55.688;37.600;2023-03-11T12:39:33;98443.78;;;-2.98;65.79
70200;BME280;57587;55.688;37.600;2023-03-11T12:44:38;98422.28;;;-3.02;65.77
70200;BME280;57587;55.688;37.600;2023-03-11T12:49:46;98432.75;;;-3.02;65.50
70200;BME280;57587;55.688;37.600;2023-03-11T12:52:23;98437.09;;;-2.91;65.34
70200;BME280;57587;55.688;37.600;2023-03-11T13:10:52;98430.88;;;-3.11;65.45
70200;BME280;57587;55.688;37.600;2023-03-11T13:18:42;98396.19;;;-2.92;65.64
70200;BME280;57587;55.688;37.600;2023-03-11T13:24:47;98385.25;;;-2.76;65.88
70200;BME280;57587;55.688;37.600;2023-03-11T13:27:36;98375.69;;;-2.66;65.13
70200;BME280;57587;55.688;37.600;2023-03-11T13:30:19;98366.34;;;-2.59;64.98
70200;BME280;57587;55.688;37.600;2023-03-11T13:36:31;98365.03;;;-2.74;65.70
70200;BME280;57587;55.688;37.600;2023-03-11T13:41:30;98352.44;;;-2.81;65.79
70200;BME280;57587;55.688;37.600;2023-03-11T13:44:26;98354.09;;;-2.80;66.18
70200;BME280;57587;55.688;37.600;2023-03-11T13:47:12;98348.09;;;-2.91;66.24
70200;BME280;57587;55.688;37.600;2023-03-11T13:52:43;98328.09;;;-2.71;66.56
70200;BME280;57587;55.688;37.600;2023-03-11T13:55:31;98327.66;;;-2.76;66.67
70200;BME280;57587;55.688;37.600;2023-03-11T13:58:00;98324.94;;;-2.75;67.13
70200;BME280;57587;55.688;37.600;2023-03-11T14:00:28;98331.34;;;-2.58;66.96
70200;BME280;57587;55.688;37.600;2023-03-11T14:02:58;98319.88;;;-2.57;66.51
70200;BME280;57587;55.688;37.600;2023-03-11T14:05:32;98314.91;;;-2.60;66.61
70200;BME280;57587;55.688;37.600;2023-03-11T14:08:26;98326.63;;;-2.64;67.05
70200;BME280;57587;55.688;37.600;2023-03-11T14:10:57;98321.25;;;-2.63;67.16
70200;BME280;57587;55.688;37.600;2023-03-11T14:13:32;98329.16;;;-2.53;67.11
70200;BME280;57587;55.688;37.600;2023-03-11T14:16:07;98317.72;;;-2.52;67.05
70200;BME280;57587;55.688;37.600;2023-03-11T14:18:41;98319.63;;;-2.54;67.28
70200;BME280;57587;55.688;37.600;2023-03-11T14:21:26;98323.09;;;-2.53;67.17
70200;BME280;57587;55.688;37.600;2023-03-11T14:23:54;98301.56;;;-2.57;67.35
70200;BME280;57587;55.688;37.600;2023-03-11T14:26:26;98324.84;;;-2.54;67.69